Time;durP1;ratioP1;P1;durP2;ratioP2;P2;SDS_P1;SDS_P2;PMS_P1;PMS_P2;Temp;Humidity;BMP_temperature;BMP_pressure;BME280_temperature;BME280_humidity;BME280_pressure;Samples;Min_cycle;Max_cycle;Signal;HPM_P1;HPM_P2
2022/11/08 00:02:00;;;;;;;3.50;1.55;;;;;;;11.59;100.00;99647.16;12209050;19;20134;-83
2022/11/08 00:14:43;;;;;;;4.72;1.20;;;;;;;11.58;100.00;99642.72;12207721;19;20011;-84
2022/11/08 00:18:45;;;;;;;6.88;1.42;;;;;;;11.55;100.00;99648.78;12231657;19;20002;-84
2022/11/08 00:22:47;;;;;;;4.32;1.30;;;;;;;11.49;100.00;99647.06;12208064;19;20365;-83
2022/11/08 00:26:48;;;;;;;4.25;1.40;;;;;;;11.44;100.00;99639.53;12224357;19;20006;-83
2022/11/08 00:30:50;;;;;;;4.45;1.60;;;;;;;11.44;100.00;99642.31;12225895;19;20618;-84
2022/11/08 00:34:52;;;;;;;3.78;1.77;;;;;;;11.44;100.00;99641.47;12205893;19;20011;-83
2022/11/08 00:38:53;;;;;;;5.75;1.95;;;;;;;11.43;100.00;99629.63;12230555;19;20010;-82
2022/11/08 00:42:55;;;;;;;6.25;1.30;;;;;;;11.41;100.00;99629.03;12228951;19;20566;-82
2022/11/08 00:46:57;;;;;;;7.25;1.95;;;;;;;11.38;100.00;99627.63;12206913;19;20046;-84
2022/11/08 00:51:03;;;;;;;5.15;1.83;;;;;;;11.37;100.00;99633.41;12226089;19;20013;-83
2022/11/08 00:55:05;;;;;;;5.15;1.70;;;;;;;11.35;100.00;99625.38;12229406;19;20018;-83
2022/11/08 00:59:07;;;;;;;5.70;1.80;;;;;;;11.33;100.00;99630.34;12205707;19;20095;-83
2022/11/08 01:03:17;;;;;;;5.25;1.67;;;;;;;11.31;100.00;99615.97;12225485;19;20076;-82
2022/11/08 01:07:19;;;;;;;7.28;1.60;;;;;;;11.28;100.00;99612.91;12228134;19;20649;-83
2022/11/08 01:11:23;;;;;;;5.85;1.60;;;;;;;11.29;100.00;99612.63;12204001;19;20021;-83
2022/11/08 01:15:24;;;;;;;4.82;1.75;;;;;;;11.27;100.00;99606.53;12227176;19;20037;-83
2022/11/08 01:19:26;;;;;;;7.93;1.77;;;;;;;11.26;100.00;99610.38;12227525;19;20014;-83
2022/11/08 01:23:29;;;;;;;3.42;1.48;;;;;;;11.25;100.00;99605.97;12201397;19;20011;-84
2022/11/08 01:27:30;;;;;;;4.13;2.38;;;;;;;11.25;100.00;99603.22;12232142;19;20353;-84
2022/11/08 01:31:32;;;;;;;5.38;1.65;;;;;;;11.24;100.00;99595.19;12201160;19;20342;-84
2022/11/08 01:35:34;;;;;;;3.20;1.40;;;;;;;11.22;100.00;99592.72;12226734;19;20014;-83
2022/11/08 01:39:36;;;;;;;4.60;1.60;;;;;;;11.25;100.00;99594.94;12220287;19;20015;-83
2022/11/08 01:43:57;;;;;;;5.05;1.48;;;;;;;11.25;100.00;99588.59;12206614;19;20003;-82
2022/11/08 01:47:59;;;;;;;6.95;1.42;;;;;;;11.24;100.00;99584.97;12225817;19;20032;-83
2022/11/08 01:52:19;;;;;;;1.95;0.90;;;;;;;11.23;100.00;99583.31;12223566;19;20014;-83
2022/11/08 01:56:21;;;;;;;9.23;1.73;;;;;;;11.24;100.00;99584.97;12206447;19;20011;-84
2022/11/08 02:00:23;;;;;;;3.08;1.10;;;;;;;11.23;100.00;99566.78;12224571;19;20018;-83
2022/11/08 02:04:24;;;;;;;5.68;1.50;;;;;;;11.23;100.00;99569.53;12226873;19;20009;-84
2022/11/08 02:08:38;;;;;;;4.28;1.27;;;;;;;11.23;100.00;99554.91;12202056;19;20022;-84
2022/11/08 02:12:39;;;;;;;8.82;1.30;;;;;;;11.18;100.00;99563.97;12212618;19;20021;-83
2022/11/08 02:16:41;;;;;;;5.93;1.08;;;;;;;11.18;100.00;99562.06;12202793;19;20076;-83
2022/11/08 02:20:59;;;;;;;3.83;1.02;;;;;;;11.19;100.00;99560.13;12219496;19;20113;-83
2022/11/08 02:25:01;;;;;;;3.63;1.20;;;;;;;11.19;100.00;99551.84;12222839;19;20018;-83
2022/11/08 02:29:25;;;;;;;4.47;1.20;;;;;;;11.17;100.00;99551.28;12204911;19;20014;-83
2022/11/08 02:33:27;;;;;;;4.03;1.38;;;;;;;11.14;100.00;99549.88;12223917;19;20014;-82
2022/11/08 02:37:29;;;;;;;3.20;1.15;;;;;;;11.11;100.00;99550.38;12206500;19;20019;-83
2022/11/08 02:41:31;;;;;;;3.93;1.23;;;;;;;11.08;100.00;99541.81;12225337;19;20011;-83
2022/11/08 02:45:33;;;;;;;6.00;1.25;;;;;;;11.06;100.00;99538.47;12228189;19;20075;-84
2022/11/08 02:49:34;;;;;;;3.03;1.00;;;;;;;11.03;100.00;99534.28;12205483;19;20015;-83
2022/11/08 02:53:36;;;;;;;5.10;1.20;;;;;;;11.02;100.00;99532.66;12237942;19;20010;-83
2022/11/08 02:57:37;;;;;;;9.82;2.70;;;;;;;11.01;100.00;99536.50;12239982;19;20673;-82
2022/11/08 03:01:39;;;;;;;4.35;1.50;;;;;;;10.98;100.00;99520.47;12214107;19;20011;-83
2022/11/08 03:05:42;;;;;;;4.68;1.08;;;;;;;10.95;100.00;99521.81;12238219;19;20002;-84
2022/11/08 03:09:43;;;;;;;4.00;1.33;;;;;;;10.92;100.00;99530.63;12236853;19;20345;-84
2022/11/08 03:13:45;;;;;;;1.55;0.70;;;;;;;10.89;100.00;99536.66;12212832;19;20119;-84
2022/11/08 03:17:47;;;;;;;3.13;1.38;;;;;;;10.85;100.00;99521.69;12236555;19;20020;-83
2022/11/08 03:21:48;;;;;;;7.32;1.23;;;;;;;10.81;100.00;99525.25;12230324;19;20018;-84
2022/11/08 03:25:50;;;;;;;5.55;1.38;;;;;;;10.70;100.00;99530.63;12213104;19;20015;-84
2022/11/08 03:29:51;;;;;;;9.65;1.50;;;;;;;10.56;100.00;99525.75;12231523;19;20023;-83
2022/11/08 03:33:53;;;;;;;2.45;1.25;;;;;;;10.43;100.00;99524.22;12235493;19;20021;-84
2022/11/08 03:37:56;;;;;;;4.40;1.30;;;;;;;10.34;100.00;99518.34;12213424;19;20031;-83
2022/11/08 03:42:01;;;;;;;;;;;;;;;10.24;100.00;99513.50;12236923;19;20095;-83
2022/11/08 03:46:03;;;;;;;5.25;1.65;;;;;;;10.16;100.00;99497.41;12240250;19;19928;-83
2022/11/08 03:50:06;;;;;;;5.40;1.65;;;;;;;10.07;100.00;99495.38;12219212;19;20011;-83
2022/11/08 03:54:08;;;;;;;;;;;;;;;9.97;100.00;99485.88;12274691;19;20014;-83
2022/11/08 03:58:11;;;;;;;5.93;1.00;;;;;;;9.91;100.00;99480.56;12269814;19;19911;-84
2022/11/08 04:02:12;;;;;;;5.83;1.10;;;;;;;9.83;100.00;99476.31;12218571;19;20604;-83
2022/11/08 04:06:14;;;;;;;3.13;1.02;;;;;;;9.77;100.00;99469.91;12247602;19;20013;-82
2022/11/08 04:10:16;;;;;;;4.75;1.15;;;;;;;9.71;100.00;99464.59;12244450;19;20066;-83
2022/11/08 04:22:58;;;;;;;2.90;0.98;;;;;;;9.54;100.00;99462.66;12221614;19;20468;-84
2022/11/08 04:27:01;;;;;;;1.35;0.93;;;;;;;9.48;100.00;99452.69;12235097;19;20016;-84
2022/11/08 04:31:12;;;;;;;3.22;1.27;;;;;;;9.40;100.00;99457.75;12237081;19;20490;-83
2022/11/08 04:35:14;;;;;;;2.90;1.30;;;;;;;9.32;100.00;99453.53;12218539;19;20019;-83
2022/11/08 04:39:16;;;;;;;5.03;1.67;;;;;;;9.25;100.00;99442.72;12237130;19;20011;-83
2022/11/08 04:43:17;;;;;;;3.47;1.80;;;;;;;9.22;100.00;99445.97;12237904;19;20401;-84
2022/11/08 04:47:19;;;;;;;3.80;1.17;;;;;;;9.20;100.00;99436.28;12220344;19;20014;-83
2022/11/08 04:51:25;;;;;;;3.75;1.27;;;;;;;9.17;100.00;99436.78;12237576;19;20014;-83
2022/11/08 04:55:27;;;;;;;3.78;1.50;;;;;;;9.12;100.00;99435.59;12232796;19;20011;-84
2022/11/08 04:59:28;;;;;;;4.40;1.40;;;;;;;9.09;100.00;99438.84;12211358;19;20022;-84
2022/11/08 05:03:30;;;;;;;3.20;1.17;;;;;;;9.04;100.00;99436.03;12234324;19;20038;-84
2022/11/08 05:07:32;;;;;;;3.58;1.20;;;;;;;8.96;100.00;99449.34;12213797;19;20099;-83
2022/11/08 05:11:33;;;;;;;4.78;1.60;;;;;;;8.87;100.00;99447.00;12230389;19;20006;-84
2022/11/08 05:15:35;;;;;;;4.43;1.27;;;;;;;8.83;100.00;99439.50;12231854;19;20011;-84
2022/11/08 05:23:57;;;;;;;5.82;2.47;;;;;;;8.78;100.00;99431.19;12238324;19;20602;-84
2022/11/08 05:27:59;;;;;;;9.53;3.13;;;;;;;8.77;100.00;99424.00;12259608;19;20076;-85
2022/11/08 05:32:00;;;;;;;9.32;3.72;;;;;;;8.77;100.00;99432.25;12251564;19;19998;-84
2022/11/08 05:36:03;;;;;;;9.52;3.97;;;;;;;8.76;100.00;99427.84;12270170;19;20006;-83
2022/11/08 05:40:07;;;;;;;9.35;3.83;;;;;;;8.74;100.00;99425.31;12241832;19;20013;-83
2022/11/08 05:44:09;;;;;;;7.70;3.83;;;;;;;8.74;100.00;99424.50;12220306;19;20015;-84
2022/11/08 05:48:10;;;;;;;8.43;3.95;;;;;;;8.74;100.00;99421.75;12244607;19;20011;-83
2022/11/08 05:52:12;;;;;;;7.55;3.33;;;;;;;8.71;100.00;99431.31;12241494;19;20074;-83
2022/11/08 05:56:14;;;;;;;8.30;3.40;;;;;;;8.66;100.00;99429.31;12221128;19;20088;-83
2022/11/08 06:00:16;;;;;;;6.60;3.50;;;;;;;8.64;100.00;99427.91;12241905;19;20014;-84
2022/11/08 06:04:18;;;;;;;10.18;3.53;;;;;;;8.61;100.00;99412.75;12249135;19;20045;-83
2022/11/08 06:08:19;;;;;;;7.45;3.40;;;;;;;8.60;100.00;99402.84;12222873;19;20010;-84
2022/11/08 06:12:21;;;;;;;11.38;4.43;;;;;;;8.60;100.00;99404.78;12244196;19;20050;-83
2022/11/08 06:16:23;;;;;;;10.98;3.47;;;;;;;8.58;100.00;99402.25;12252434;19;20011;-83
2022/11/08 06:20:25;;;;;;;8.80;4.30;;;;;;;8.58;100.00;99402.25;12229139;19;20448;-83
2022/11/08 06:24:27;;;;;;;12.15;4.20;;;;;;;8.60;100.00;99391.03;12245437;19;20030;-84
2022/11/08 06:28:28;;;;;;;7.18;3.33;;;;;;;8.61;100.00;99377.03;12247684;19;20050;-83
2022/11/08 06:32:30;;;;;;;7.50;2.78;;;;;;;8.63;100.00;99369.41;12217999;19;20089;-81
2022/11/08 06:36:32;;;;;;;7.68;2.72;;;;;;;8.72;100.00;99377.25;12243600;19;20013;-81
2022/11/08 06:45:32;;;;;;;5.50;2.20;;;;;;;8.83;100.00;99395.53;12197623;19;20016;-82
2022/11/08 06:49:35;;;;;;;6.23;2.13;;;;;;;8.83;100.00;99401.03;12197527;19;20006;-82
2022/11/08 06:53:37;;;;;;;4.97;2.67;;;;;;;8.77;100.00;99404.78;12212855;19;20007;-83
2022/11/08 06:57:39;;;;;;;8.48;2.83;;;;;;;8.71;100.00;99416.75;12216779;19;20007;-82
2022/11/08 07:01:40;;;;;;;22.85;11.77;;;;;;;8.63;100.00;99418.84;12193841;19;20003;-83
2022/11/08 07:05:46;;;;;;;12.18;7.00;;;;;;;8.65;100.00;99424.91;12216751;19;20003;-82
2022/11/08 07:09:47;;;;;;;6.10;3.33;;;;;;;8.71;100.00;99427.75;12218718;19;20010;-81
2022/11/08 07:13:49;;;;;;;8.75;3.63;;;;;;;8.78;100.00;99431.19;12192645;19;20453;-82
2022/11/08 07:17:51;;;;;;;9.70;3.78;;;;;;;8.83;100.00;99428.50;12216873;19;20014;-83
2022/11/08 07:21:52;;;;;;;6.03;2.92;;;;;;;8.90;100.00;99426.44;12212435;19;20003;-83
2022/11/08 07:25:54;;;;;;;7.10;3.53;;;;;;;8.96;100.00;99432.88;12192133;19;20026;-81
2022/11/08 07:29:56;;;;;;;11.02;3.47;;;;;;;9.03;100.00;99426.13;12213644;19;20072;-83
2022/11/08 07:33:57;;;;;;;7.13;3.40;;;;;;;9.12;100.00;99416.38;12210786;19;20014;-83
2022/11/08 07:37:59;;;;;;;9.27;3.55;;;;;;;9.25;100.00;99420.72;12198449;19;20022;-82
2022/11/08 07:42:01;;;;;;;9.02;3.00;;;;;;;9.39;100.00;99418.44;12223005;19;20492;-82
2022/11/08 07:46:04;;;;;;;9.38;3.10;;;;;;;9.52;100.00;99431.84;12230665;19;20014;-83
2022/11/08 07:50:13;;;;;;;4.95;2.92;;;;;;;9.67;100.00;99422.16;12207755;19;20014;-84
2022/11/08 07:54:18;;;;;;;5.97;3.35;;;;;;;9.83;100.00;99432.28;12219645;19;20411;-82
2022/11/08 07:58:21;;;;;;;;;;;;;;;9.96;100.00;99440.16;12227053;19;20111;-81
2022/11/08 08:02:27;;;;;;;8.20;3.35;;;;;;;10.10;100.00;99450.81;12211734;19;19921;-82
2022/11/08 08:06:31;;;;;;;8.50;3.22;;;;;;;10.18;100.00;99447.63;12266894;19;20622;-84
2022/11/08 08:10:33;;;;;;;6.85;2.78;;;;;;;10.30;100.00;99442.00;12211486;19;20018;-84
2022/11/08 08:14:36;;;;;;;7.78;2.25;;;;;;;10.40;100.00;99447.63;12230801;19;20289;-84
2022/11/08 08:18:41;;;;;;;4.85;2.40;;;;;;;10.43;100.00;99447.94;12253773;19;20559;-82
2022/11/08 08:22:44;;;;;;;4.70;2.33;;;;;;;10.51;100.00;99451.34;12205057;19;20044;-82
2022/11/08 08:26:47;;;;;;;9.18;2.90;;;;;;;10.60;100.00;99458.06;12229796;19;20379;-83
2022/11/08 08:30:51;;;;;;;11.30;2.47;;;;;;;10.72;100.00;99462.31;12226699;19;20018;-83
2022/11/08 08:34:54;;;;;;;5.53;2.70;;;;;;;10.92;100.00;99469.16;12200808;19;20033;-83
2022/11/08 08:38:55;;;;;;;9.50;2.92;;;;;;;11.09;100.00;99467.06;12229145;19;20392;-84
2022/11/08 08:42:59;;;;;;;8.02;3.30;;;;;;;11.25;100.00;99465.31;12222939;19;20009;-83
2022/11/08 08:47:01;;;;;;;9.00;3.45;;;;;;;11.42;100.00;99467.91;12204525;19;20409;-83
2022/11/08 08:51:03;;;;;;;4.70;2.72;;;;;;;11.65;100.00;99466.72;12223338;19;20011;-83
2022/11/08 08:55:06;;;;;;;7.63;3.05;;;;;;;11.82;100.00;99458.28;12219160;19;20007;-82
2022/11/08 08:59:07;;;;;;;6.43;2.63;;;;;;;11.94;100.00;99458.09;12224803;19;20005;-83
2022/11/08 09:03:32;;;;;;;7.38;2.92;;;;;;;12.05;100.00;99454.31;12268483;19;20014;-84
2022/11/08 09:07:33;;;;;;;8.73;3.15;;;;;;;12.19;100.00;99462.91;12213188;19;20066;-85
2022/11/08 09:21:40;;;;;;;5.60;3.22;;;;;;;12.21;100.00;99464.31;12225692;19;20014;-84
2022/11/08 09:25:48;;;;;;;8.27;3.15;;;;;;;12.09;100.00;99460.94;12203042;19;20021;-86
2022/11/08 09:29:51;;;;;;;5.68;2.90;;;;;;;12.04;100.00;99458.16;12227752;19;20006;-85
2022/11/08 09:33:53;;;;;;;7.32;3.90;;;;;;;12.08;100.00;99451.00;12228147;19;20479;-86
2022/11/08 09:37:56;;;;;;;6.30;3.47;;;;;;;12.06;100.00;99450.44;12205861;19;20120;-85
2022/11/08 09:42:27;;;;;;;7.38;3.38;;;;;;;12.22;100.00;99446.63;12225500;19;20011;-83
2022/11/08 09:46:42;;;;;;;7.13;3.30;;;;;;;12.42;100.00;99440.34;12224700;19;20007;-84
2022/11/08 09:50:45;;;;;;;7.82;3.72;;;;;;;12.63;100.00;99432.13;12225561;19;20017;-85
2022/11/08 09:54:49;;;;;;;7.97;3.08;;;;;;;12.89;100.00;99433.03;12217301;19;20381;-85
2022/11/08 09:59:01;;;;;;;5.85;2.88;;;;;;;13.11;100.00;99427.22;12202440;19;20054;-86
2022/11/08 10:03:03;;;;;;;6.70;2.50;;;;;;;13.35;100.00;99436.66;12222793;19;20089;-85
2022/11/08 10:07:29;;;;;;;10.73;2.90;;;;;;;13.64;100.00;99447.97;12220258;19;20025;-86
2022/11/08 10:11:31;;;;;;;5.32;2.53;;;;;;;13.86;100.00;99446.84;12199056;19;20007;-86
2022/11/08 10:15:51;;;;;;;6.38;2.25;;;;;;;13.99;100.00;99435.19;12217926;19;20101;-85
2022/11/08 10:20:07;;;;;;;4.10;1.88;;;;;;;14.08;100.00;99430.72;12196575;19;20006;-84
2022/11/08 10:24:21;;;;;;;5.15;1.67;;;;;;;14.21;99.14;99420.13;12225481;19;20054;-85
2022/11/08 10:29:00;;;;;;;4.50;1.98;;;;;;;14.40;95.43;99423.13;12221689;19;20033;-83
2022/11/08 10:33:14;;;;;;;3.72;1.48;;;;;;;14.54;93.00;99415.84;12126040;19;2004187;-83
2022/11/08 10:37:18;;;;;;;2.15;1.15;;;;;;;14.66;92.27;99412.72;12224362;19;20040;-84
2022/11/08 10:41:25;;;;;;;;;;;;;;;14.74;90.72;99418.50;12198935;19;20048;-86
2022/11/08 10:45:27;;;;;;;4.38;1.60;;;;;;;14.86;88.45;99426.47;12220552;19;19914;-83
2022/11/08 10:49:39;;;;;;;6.20;1.10;;;;;;;14.97;86.58;99416.97;12219954;19;20034;-85
2022/11/08 10:53:43;;;;;;;3.88;1.40;;;;;;;15.14;85.67;99426.81;12220839;19;20007;-85
2022/11/08 10:57:45;;;;;;;3.80;1.48;;;;;;;15.27;82.81;99420.63;12218435;19;20630;-84
2022/11/08 11:01:49;;;;;;;4.47;1.48;;;;;;;15.41;82.40;99421.63;12194302;19;20012;-85
2022/11/08 11:06:01;;;;;;;6.65;1.45;;;;;;;15.58;81.53;99423.94;12223191;19;20465;-86
2022/11/08 11:10:25;;;;;;;5.38;1.70;;;;;;;15.71;80.61;99403.03;12220037;19;20040;-85
2022/11/08 11:14:27;;;;;;;3.47;1.63;;;;;;;15.92;80.13;99409.19;12207244;19;20056;-85
2022/11/08 11:18:37;;;;;;;2.30;1.30;;;;;;;16.24;75.91;99402.97;12236954;19;20011;-85
2022/11/08 11:22:45;;;;;;;3.08;1.58;;;;;;;16.62;73.44;99397.44;12212225;19;20010;-84
2022/11/08 11:26:59;;;;;;;3.92;1.70;;;;;;;16.95;72.28;99397.56;12237302;19;20059;-85
2022/11/08 11:31:12;;;;;;;4.22;1.50;;;;;;;17.19;69.84;99391.88;12231117;19;20744;-84
2022/11/08 11:35:15;;;;;;;2.42;1.00;;;;;;;17.29;70.03;99386.16;12208101;19;20007;-84
2022/11/08 11:39:53;;;;;;;3.33;2.25;;;;;;;17.42;67.62;99387.31;12234753;19;20010;-84
2022/11/08 11:44:19;;;;;;;7.47;1.80;;;;;;;17.44;67.66;99371.94;12211010;19;20422;-84
2022/11/08 11:48:32;;;;;;;4.35;1.85;;;;;;;17.38;65.34;99364.81;12233826;19;20010;-85
2022/11/08 11:52:34;;;;;;;4.07;1.10;;;;;;;17.49;67.49;99369.09;12215458;19;20021;-85
2022/11/08 11:56:46;;;;;;;1.90;1.00;;;;;;;17.55;65.95;99367.03;12230620;19;20030;-85
2022/11/08 12:00:55;;;;;;;;;;;;;;;17.68;66.40;99363.44;12231202;19;20054;-85
2022/11/08 12:05:34;;;;;;;4.43;1.38;;;;;;;17.82;64.46;99362.63;12209358;19;19917;-84
2022/11/08 12:10:08;;;;;;;5.80;1.25;;;;;;;17.70;63.92;99349.19;12240031;19;20025;-84
2022/11/08 12:14:44;;;;;;;3.60;1.42;;;;;;;17.63;62.83;99360.72;12210587;19;20053;-83
2022/11/08 12:18:56;;;;;;;2.55;1.25;;;;;;;17.65;65.19;99366.00;12235658;19;20010;-84
2022/11/08 12:23:05;;;;;;;2.60;1.38;;;;;;;17.86;63.79;99358.94;12203859;19;20088;-84
2022/11/08 12:27:16;;;;;;;3.63;1.58;;;;;;;18.09;62.19;99354.28;12256249;19;20010;-82
2022/11/08 12:31:30;;;;;;;3.05;1.38;;;;;;;18.51;61.90;99357.03;12278872;19;20006;-84
2022/11/08 12:36:13;;;;;;;2.33;1.23;;;;;;;18.80;59.17;99348.25;12228726;19;20096;-84
2022/11/08 12:40:29;;;;;;;3.08;1.30;;;;;;;18.74;58.98;99333.63;12220187;19;20031;-84
2022/11/08 12:44:45;;;;;;;3.72;1.20;;;;;;;18.66;58.68;99332.38;12200548;19;20021;-85
2022/11/08 12:49:06;;;;;;;2.95;1.10;;;;;;;18.52;58.55;99326.00;12222482;19;20011;-85
2022/11/08 12:53:51;;;;;;;2.50;1.25;;;;;;;18.44;58.07;99313.63;12197244;19;20070;-85
2022/11/08 12:57:56;;;;;;;4.43;1.10;;;;;;;18.47;58.83;99312.16;12214250;19;20042;-85
2022/11/08 13:02:00;;;;;;;5.25;1.30;;;;;;;18.58;58.24;99315.53;12203010;19;20078;-84
2022/11/08 13:06:17;;;;;;;2.15;1.30;;;;;;;18.60;57.94;99308.53;12225397;19;20043;-84
2022/11/08 13:10:46;;;;;;;2.03;1.17;;;;;;;18.57;57.30;99308.31;12225006;19;20011;-85
2022/11/08 13:14:51;;;;;;;3.22;1.38;;;;;;;18.44;58.12;99313.63;12198359;19;20021;-85
2022/11/08 13:18:55;;;;;;;3.27;1.23;;;;;;;18.34;59.09;99315.81;12221217;19;20014;-85
2022/11/08 13:22:58;;;;;;;2.28;1.25;;;;;;;18.21;58.55;99312.75;12197279;19;20010;-85
2022/11/08 13:27:38;;;;;;;2.50;1.13;;;;;;;18.06;57.80;99298.34;12222929;19;20076;-84
2022/11/08 13:31:59;;;;;;;2.75;1.27;;;;;;;17.95;57.90;99298.53;12195761;19;20038;-85
2022/11/08 13:36:50;;;;;;;1.63;1.30;;;;;;;17.98;57.62;99297.91;12217396;19;20052;-85
2022/11/08 13:41:10;;;;;;;3.03;1.60;;;;;;;18.02;57.60;99289.75;12195362;19;20007;-84
2022/11/08 13:45:15;;;;;;;3.80;1.48;;;;;;;18.08;57.20;99290.47;12218460;19;20028;-85
2022/11/08 13:49:19;;;;;;;2.50;1.23;;;;;;;18.10;57.19;99288.19;12222705;19;20014;-84
2022/11/08 13:53:21;;;;;;;2.35;1.23;;;;;;;18.05;57.22;99294.69;12195903;19;20035;-85
2022/11/08 13:57:58;;;;;;;2.38;1.40;;;;;;;18.02;57.46;99292.53;12216838;19;20014;-85
2022/11/08 14:02:04;;;;;;;3.17;1.52;;;;;;;17.91;57.74;99283.59;12200070;19;20010;-83
2022/11/08 14:06:31;;;;;;;3.58;1.30;;;;;;;17.73;57.50;99284.50;12257057;19;20011;-83
2022/11/08 14:11:06;;;;;;;4.22;1.33;;;;;;;17.60;58.24;99291.69;12245153;19;20021;-85
2022/11/08 14:15:16;;;;;;;6.50;1.50;;;;;;;17.49;58.11;99282.72;12238138;19;20026;-85
2022/11/08 14:19:24;;;;;;;3.47;1.40;;;;;;;17.43;57.88;99286.75;12235708;19;20388;-85
2022/11/08 14:23:39;;;;;;;2.65;1.25;;;;;;;17.39;57.61;99284.88;12208547;19;20023;-84
2022/11/08 14:27:44;;;;;;;9.88;1.60;;;;;;;17.30;57.64;99285.59;12234950;19;20014;-85
2022/11/08 14:31:47;;;;;;;3.03;1.25;;;;;;;17.25;57.72;99285.69;12206410;19;20011;-84
2022/11/08 14:35:57;;;;;;;3.47;1.47;;;;;;;17.15;57.22;99283.09;12230757;19;20018;-84
2022/11/08 14:39:59;;;;;;;3.63;1.17;;;;;;;17.11;57.89;99279.28;12229725;19;20491;-83
2022/11/08 14:44:02;;;;;;;2.28;1.42;;;;;;;17.07;57.84;99272.66;12205393;19;20092;-84
2022/11/08 14:48:04;;;;;;;5.50;1.50;;;;;;;17.01;58.07;99273.88;12235527;19;20076;-83
2022/11/08 14:52:19;;;;;;;6.10;1.40;;;;;;;16.91;58.00;99276.84;12236307;19;20656;-84
2022/11/08 14:56:27;;;;;;;2.80;1.40;;;;;;;16.87;58.28;99270.25;12213510;19;21001;-84
2022/11/08 15:00:28;;;;;;;3.90;1.20;;;;;;;16.80;58.49;99270.63;12232090;19;20050;-85
2022/11/08 15:04:49;;;;;;;4.32;1.30;;;;;;;16.72;60.08;99274.91;12227044;19;20011;-84
2022/11/08 15:13:14;;;;;;;4.22;1.30;;;;;;;16.45;60.67;99266.44;12230952;19;20461;-84
2022/11/08 15:17:31;;;;;;;4.00;1.40;;;;;;;16.28;61.74;99265.03;12214231;19;20011;-84
2022/11/08 15:21:33;;;;;;;2.92;1.38;;;;;;;16.11;62.74;99254.41;12234332;19;20259;-84
2022/11/08 15:25:37;;;;;;;3.35;1.30;;;;;;;15.95;63.14;99253.00;12220441;19;20003;-84
2022/11/08 15:30:00;;;;;;;4.10;1.08;;;;;;;15.81;63.51;99250.13;12234362;19;20668;-84
2022/11/08 15:34:03;;;;;;;2.08;1.15;;;;;;;15.71;63.21;99242.75;12232694;19;20337;-84
2022/11/08 15:38:22;;;;;;;3.70;1.42;;;;;;;15.66;62.91;99244.75;12223577;19;19999;-84
2022/11/08 15:42:25;;;;;;;2.33;1.20;;;;;;;15.62;62.72;99249.25;12239709;19;20045;-83
2022/11/08 15:46:32;;;;;;;3.83;1.25;;;;;;;15.55;62.74;99243.22;12237880;19;20015;-84
2022/11/08 15:50:35;;;;;;;2.78;1.10;;;;;;;15.49;62.64;99240.47;12213320;19;20049;-84
2022/11/08 15:54:39;;;;;;;4.43;1.20;;;;;;;15.46;62.60;99243.84;12228466;19;20377;-84
2022/11/08 15:58:40;;;;;;;3.63;1.25;;;;;;;15.43;62.78;99247.22;12206028;19;20014;-86
2022/11/08 16:02:43;;;;;;;3.05;1.80;;;;;;;15.44;62.73;99243.34;12221009;19;20103;-84
2022/11/08 16:06:45;;;;;;;5.07;1.15;;;;;;;15.44;62.97;99248.91;12229047;19;20002;-83
2022/11/08 16:10:52;;;;;;;2.90;1.40;;;;;;;15.44;62.60;99248.91;12199329;19;20015;-83
2022/11/08 16:14:56;;;;;;;4.40;1.70;;;;;;;15.42;62.64;99245.56;12219955;19;20007;-84
2022/11/08 16:18:58;;;;;;;2.28;1.27;;;;;;;15.42;62.46;99248.34;12219604;19;20406;-82
2022/11/08 16:23:02;;;;;;;4.45;1.70;;;;;;;15.40;62.00;99247.81;12201795;19;20125;-83
2022/11/08 16:27:04;;;;;;;4.90;1.20;;;;;;;15.46;61.66;99237.47;12220812;19;20007;-83
2022/11/08 16:31:14;;;;;;;3.67;1.38;;;;;;;15.50;61.21;99236.59;12218399;19;20027;-84
2022/11/08 16:35:16;;;;;;;4.10;1.33;;;;;;;15.55;61.45;99237.66;12201814;19;20027;-83
2022/11/08 16:39:22;;;;;;;2.60;1.73;;;;;;;15.55;61.50;99229.31;12223904;19;20493;-83
2022/11/08 16:43:59;;;;;;;4.03;1.60;;;;;;;15.60;61.24;99232.03;12246713;19;20010;-83
2022/11/08 16:57:58;;;;;;;2.40;1.38;;;;;;;15.82;60.62;99228.72;12226407;19;20076;-84
2022/11/08 17:02:04;;;;;;;1.83;1.13;;;;;;;15.88;60.56;99233.06;12210389;19;20014;-83
2022/11/08 17:06:12;;;;;;;3.15;1.40;;;;;;;15.97;60.21;99233.22;12199752;19;20014;-84
2022/11/08 17:10:17;;;;;;;2.97;1.30;;;;;;;16.07;59.88;99241.44;12195772;19;20002;-84
2022/11/08 17:14:19;;;;;;;2.08;1.38;;;;;;;16.12;59.41;99236.66;12190892;19;20013;-84
2022/11/08 17:18:20;;;;;;;4.85;1.48;;;;;;;16.15;59.37;99246.31;12199890;19;20002;-84
2022/11/08 17:22:22;;;;;;;3.27;1.57;;;;;;;16.18;59.05;99237.38;12214885;19;20014;-84
2022/11/08 17:26:24;;;;;;;3.13;1.52;;;;;;;16.20;59.01;99237.06;12207914;19;20077;-86
2022/11/08 17:30:26;;;;;;;3.30;1.60;;;;;;;16.17;59.11;99241.28;12228331;19;20050;-85
2022/11/08 17:34:30;;;;;;;4.07;1.40;;;;;;;16.17;59.01;99246.84;12220537;19;20551;-87
2022/11/08 17:38:34;;;;;;;3.30;1.23;;;;;;;16.18;58.54;99254.03;12190064;19;20026;-85
2022/11/08 17:42:37;;;;;;;3.35;1.20;;;;;;;16.19;58.58;99258.50;12212218;19;20002;-84
2022/11/08 17:46:39;;;;;;;3.88;1.20;;;;;;;16.24;58.50;99252.88;12198371;19;20035;-84
2022/11/08 17:50:46;;;;;;;5.75;1.45;;;;;;;16.25;58.60;99256.47;12220207;19;22221;-85
2022/11/08 17:54:48;;;;;;;3.38;2.10;;;;;;;16.26;58.70;99267.28;12212079;19;19998;-85
2022/11/08 17:58:53;;;;;;;2.72;1.73;;;;;;;16.21;58.68;99256.25;12195353;19;20366;-84
2022/11/08 18:02:55;;;;;;;5.25;2.55;;;;;;;16.20;59.16;99249.00;12214675;19;20039;-85
2022/11/08 18:06:56;;;;;;;3.03;1.65;;;;;;;16.14;59.18;99245.47;12233399;19;20013;-85
2022/11/08 18:10:59;;;;;;;5.10;2.25;;;;;;;16.11;59.30;99250.81;12195791;19;20030;-85
2022/11/08 18:15:01;;;;;;;3.38;1.58;;;;;;;16.04;60.09;99255.94;12214462;19;20018;-85
2022/11/08 18:19:02;;;;;;;6.27;2.20;;;;;;;16.01;60.33;99256.53;12219194;19;20361;-85
2022/11/08 18:23:04;;;;;;;7.65;2.30;;;;;;;15.92;60.25;99243.31;12195651;19;20011;-85
2022/11/08 18:27:06;;;;;;;5.47;2.13;;;;;;;15.84;60.60;99246.75;12216452;19;20014;-84
2022/11/08 18:31:16;;;;;;;4.30;2.28;;;;;;;15.76;60.80;99241.84;12215280;19;20380;-83
2022/11/08 18:35:18;;;;;;;4.50;1.75;;;;;;;15.75;60.84;99251.31;12194687;19;20403;-85
2022/11/08 18:39:20;;;;;;;4.13;1.80;;;;;;;15.75;60.93;99251.31;12222876;19;20022;-84
2022/11/08 18:43:22;;;;;;;5.20;2.13;;;;;;;15.79;60.89;99251.53;12218227;19;20026;-84
2022/11/08 18:47:24;;;;;;;4.30;1.75;;;;;;;15.84;60.90;99251.47;12196188;19;20374;-84
2022/11/08 18:51:25;;;;;;;4.90;2.40;;;;;;;15.88;60.62;99242.25;12215204;19;20014;-84
2022/11/08 18:55:27;;;;;;;3.53;1.73;;;;;;;15.93;60.76;99246.91;12255409;19;20007;-83
2022/11/08 18:59:29;;;;;;;4.57;2.00;;;;;;;16.00;60.89;99243.75;12224568;19;20022;-84
2022/11/08 19:03:32;;;;;;;6.82;2.42;;;;;;;16.04;60.77;99250.38;12224569;19;20011;-83
2022/11/08 19:07:33;;;;;;;5.97;1.85;;;;;;;16.07;60.77;99239.47;12232649;19;20027;-84
2022/11/08 19:11:35;;;;;;;7.55;2.60;;;;;;;16.12;60.79;99241.34;12227325;19;20006;-85
2022/11/08 19:15:37;;;;;;;6.90;3.10;;;;;;;16.16;60.85;99242.41;12250925;19;20068;-85
2022/11/08 19:19:39;;;;;;;4.00;2.30;;;;;;;16.19;60.86;99247.38;12214386;19;20010;-85
2022/11/08 19:23:41;;;;;;;4.28;2.08;;;;;;;16.22;60.69;99245.94;12230589;19;20078;-85
2022/11/08 19:27:42;;;;;;;4.43;1.80;;;;;;;16.21;61.07;99238.72;12254447;19;20034;-83
2022/11/08 19:31:44;;;;;;;4.55;2.17;;;;;;;16.21;61.08;99245.13;12246618;19;20045;-83
2022/11/08 19:35:46;;;;;;;4.75;2.10;;;;;;;16.17;61.31;99244.88;12263812;19;20017;-83
2022/11/08 19:39:47;;;;;;;2.90;1.80;;;;;;;16.17;61.51;99244.88;12231980;19;20499;-85
2022/11/08 19:43:50;;;;;;;5.65;1.70;;;;;;;16.15;61.93;99240.75;12207084;19;20006;-84
2022/11/08 19:47:52;;;;;;;;;;;;;;;16.11;61.75;99240.53;12229708;19;20010;-84
2022/11/08 19:51:53;;;;;;;4.07;1.85;;;;;;;16.12;61.92;99230.22;12225004;19;19910;-84
2022/11/08 19:56:04;;;;;;;6.18;1.90;;;;;;;16.09;62.16;99241.94;12206641;19;20002;-84